Time;durP1;ratioP1;P1;durP2;ratioP2;P2;SDS_P1;SDS_P2;PMS_P1;PMS_P2;Temp;Humidity;BMP_temperature;BMP_pressure;BME280_temperature;BME280_humidity;BME280_pressure;Samples;Min_cycle;Max_cycle;Signal;HPM_P1;HPM_P2
2022/01/19 00:06:11;;;;;;;9.43;4.40;;;2.70;99.90;;;;;;6719532;88;20200;-75
2022/01/19 00:16:12;;;;;;;10.00;4.75;;;3.10;99.90;;;;;;6720811;88;20227;-78
2022/01/19 00:26:12;;;;;;;11.52;5.10;;;3.00;99.90;;;;;;6723497;88;20332;-78
2022/01/19 00:36:13;;;;;;;11.10;4.75;;;2.90;99.90;;;;;;6725090;88;20287;-77
2022/01/19 00:46:13;;;;;;;10.23;4.40;;;2.60;99.90;;;;;;6723630;88;20280;-78
2022/01/19 00:56:14;;;;;;;10.52;5.03;;;2.70;99.90;;;;;;6722365;88;20220;-77
2022/01/19 01:06:15;;;;;;;9.13;4.62;;;3.00;99.90;;;;;;6724825;88;20769;-78
2022/01/19 01:16:31;;;;;;;10.77;4.93;;;3.30;99.90;;;;;;6731577;88;20287;-78
2022/01/19 01:26:32;;;;;;;7.53;4.65;;;3.60;99.90;;;;;;6723758;88;21069;-78
2022/01/19 01:36:32;;;;;;;7.20;4.97;;;3.70;99.90;;;;;;6705106;88;20218;-77
2022/01/19 01:46:43;;;;;;;5.55;3.28;;;4.20;99.90;;;;;;6710616;88;20193;-78
2022/01/19 01:56:44;;;;;;;4.35;2.78;;;4.50;99.90;;;;;;6711250;88;20181;-77
2022/01/19 02:07:07;;;;;;;4.05;2.00;;;4.70;99.90;;;;;;6711140;88;20282;-78
2022/01/19 02:58:27;;;;;;;3.37;1.90;;;4.70;99.90;;;;;;6710204;88;20159;-77
2022/01/19 03:08:47;;;;;;;2.67;1.67;;;4.80;99.90;;;;;;6709923;88;20310;-78
2022/01/19 03:18:48;;;;;;;3.42;1.45;;;4.80;99.90;;;;;;6708876;88;21338;-78
2022/01/19 03:28:49;;;;;;;6.45;1.90;;;4.90;99.90;;;;;;6709748;88;20190;-77
2022/01/19 03:38:49;;;;;;;3.33;2.10;;;4.70;99.90;;;;;;6710328;88;20204;-78
2022/01/19 03:48:56;;;;;;;4.12;1.70;;;4.70;99.90;;;;;;6714941;88;20281;-77
2022/01/19 03:58:57;;;;;;;3.65;1.90;;;4.70;99.90;;;;;;6725854;88;20729;-77
2022/01/19 04:08:57;;;;;;;3.15;2.00;;;4.80;99.90;;;;;;6726056;88;20312;-78
2022/01/19 04:19:21;;;;;;;4.70;1.80;;;4.80;99.90;;;;;;6730015;88;20200;-78
2022/01/19 04:29:18;;;;;;;3.28;1.70;;;4.80;99.90;;;;;;6724716;88;20751;-78
2022/01/19 05:20:25;;;;;;;4.68;2.03;;;4.60;99.90;;;;;;6730226;88;20203;-77
2022/01/19 05:30:25;;;;;;;4.90;1.90;;;4.60;99.90;;;;;;6728865;88;20327;-78
2022/01/19 05:40:26;;;;;;;3.72;2.30;;;4.60;99.90;;;;;;6725117;88;20536;-75
2022/01/19 05:50:27;;;;;;;3.97;2.50;;;4.70;99.90;;;;;;6729120;88;20280;-76
2022/01/19 06:00:27;;;;;;;4.40;2.42;;;4.70;99.90;;;;;;6725895;88;20193;-76
2022/01/19 06:10:43;;;;;;;3.78;2.62;;;4.70;99.90;;;;;;6727931;88;20185;-79
2022/01/19 06:20:44;;;;;;;5.22;2.95;;;4.70;99.90;;;;;;6724722;88;20186;-77
2022/01/19 06:30:45;;;;;;;4.90;3.33;;;4.60;99.90;;;;;;6733830;88;20217;-77
2022/01/19 06:40:45;;;;;;;4.90;3.42;;;4.40;99.90;;;;;;6728967;88;20218;-76
2022/01/19 06:50:46;;;;;;;7.05;4.18;;;4.50;99.90;;;;;;6726713;88;20704;-78
2022/01/19 07:00:46;;;;;;;7.25;3.62;;;4.50;99.90;;;;;;6726404;88;20226;-77
2022/01/19 07:10:47;;;;;;;5.28;3.30;;;4.60;99.90;;;;;;6733695;88;20201;-76
2022/01/19 07:20:47;;;;;;;6.30;3.90;;;4.70;99.90;;;;;;6736536;88;20216;-76
2022/01/19 07:30:48;;;;;;;6.57;3.50;;;4.60;99.90;;;;;;6727511;88;20212;-76
2022/01/19 07:40:49;;;;;;;6.03;3.53;;;4.50;99.90;;;;;;6722786;88;20224;-76
2022/01/19 07:50:50;;;;;;;6.37;3.97;;;4.70;99.90;;;;;;6729160;88;20204;-75
2022/01/19 08:00:50;;;;;;;6.72;4.00;;;4.70;99.90;;;;;;6726021;88;20205;-78
2022/01/19 08:10:51;;;;;;;7.12;4.47;;;4.80;99.90;;;;;;6726712;88;20197;-77
2022/01/19 08:20:51;;;;;;;7.95;3.92;;;4.80;99.90;;;;;;6726241;88;20324;-77
2022/01/19 08:30:52;;;;;;;8.23;4.80;;;4.90;99.90;;;;;;6746169;88;20652;-77
2022/01/19 08:40:52;;;;;;;6.05;4.25;;;4.90;99.90;;;;;;6744237;88;20214;-76
2022/01/19 08:50:53;;;;;;;7.80;4.25;;;4.70;99.90;;;;;;6744098;88;20198;-76
2022/01/19 09:00:54;;;;;;;10.45;4.50;;;4.80;99.90;;;;;;6745567;88;20777;-79
2022/01/19 09:10:57;;;;;;;6.20;4.00;;;5.00;99.90;;;;;;6749203;88;20309;-79
2022/01/19 09:20:58;;;;;;;6.53;3.97;;;4.90;99.90;;;;;;6748753;88;20177;-80
2022/01/19 09:31:01;;;;;;;9.30;4.25;;;4.90;99.90;;;;;;6748989;88;20193;-80
2022/01/19 09:41:06;;;;;;;8.15;4.37;;;4.90;99.90;;;;;;6746000;88;20198;-76
2022/01/19 09:51:07;;;;;;;8.90;4.60;;;5.10;99.90;;;;;;6742064;88;20344;-77
2022/01/19 10:01:07;;;;;;;7.85;4.82;;;5.00;99.90;;;;;;6745917;88;20369;-80
2022/01/19 10:16:58;;;;;;;9.80;5.55;;;5.10;99.90;;;;;;6749552;88;20680;-78
2022/01/19 10:22:20;;;;;;;9.07;5.15;;;4.80;99.90;;;;;;6747842;88;20521;-78
2022/01/19 10:32:25;;;;;;;6.78;4.97;;;4.90;99.90;;;;;;6713625;88;20183;-79
2022/01/19 10:42:29;;;;;;;7.05;4.57;;;5.00;99.90;;;;;;6714379;88;20245;-80
2022/01/19 10:52:37;;;;;;;6.95;4.68;;;4.90;99.90;;;;;;6710786;88;20174;-79
2022/01/19 11:02:38;;;;;;;7.78;4.68;;;5.00;99.90;;;;;;6711457;88;20648;-79
2022/01/19 11:12:48;;;;;;;11.57;5.35;;;4.90;99.90;;;;;;6726019;88;20210;-79
2022/01/19 11:23:16;;;;;;;9.50;5.45;;;4.90;99.90;;;;;;6729819;87;20791;-79
2022/01/19 11:33:24;;;;;;;10.82;5.75;;;4.90;99.90;;;;;;6733041;88;20191;-79
2022/01/19 11:43:30;;;;;;;10.20;5.40;;;5.00;99.90;;;;;;6722528;88;20161;-78
2022/01/19 11:53:50;;;;;;;9.73;5.33;;;5.00;99.90;;;;;;6731923;88;20176;-79
2022/01/19 12:03:51;;;;;;;9.23;5.60;;;4.90;99.90;;;;;;6739333;88;20318;-78
2022/01/19 12:14:08;;;;;;;8.00;5.68;;;5.00;99.90;;;;;;6737656;88;20220;-79
2022/01/19 12:24:37;;;;;;;9.00;5.68;;;5.00;99.90;;;;;;6740949;88;20229;-76
2022/01/19 12:34:48;;;;;;;9.80;6.07;;;5.10;99.90;;;;;;6728931;88;20207;-79
2022/01/19 12:44:57;;;;;;;12.27;6.70;;;5.20;99.90;;;;;;6726799;88;20225;-78
2022/01/19 12:55:08;;;;;;;12.88;6.93;;;4.90;99.90;;;;;;6729096;88;21119;-78
2022/01/19 13:05:15;;;;;;;14.80;8.30;;;4.80;99.90;;;;;;6735457;88;20309;-80
2022/01/19 13:15:17;;;;;;;17.87;9.60;;;4.60;99.90;;;;;;6737898;88;20169;-79
2022/01/19 13:25:21;;;;;;;16.70;9.60;;;4.60;99.90;;;;;;6730109;88;20189;-79
2022/01/19 13:35:25;;;;;;;17.20;9.52;;;4.60;99.90;;;;;;6730724;88;20285;-79
2022/01/19 13:45:37;;;;;;;18.20;9.43;;;4.70;99.90;;;;;;6726725;88;20181;-78
2022/01/19 13:55:38;;;;;;;17.37;9.82;;;4.60;99.90;;;;;;6731013;88;20180;-78
2022/01/19 14:05:42;;;;;;;19.50;9.82;;;4.60;99.90;;;;;;6730395;88;20678;-77
2022/01/19 14:15:43;;;;;;;21.73;10.02;;;4.60;99.90;;;;;;6730031;88;20341;-76
2022/01/19 14:25:44;;;;;;;17.83;10.10;;;4.50;99.90;;;;;;6726814;88;20336;-77
2022/01/19 14:35:51;;;;;;;19.02;10.13;;;4.40;99.90;;;;;;6731437;88;20213;-76
2022/01/19 14:46:10;;;;;;;19.55;9.68;;;4.40;99.90;;;;;;6730873;88;20320;-77
2022/01/19 14:56:11;;;;;;;17.48;9.38;;;4.20;99.90;;;;;;6734750;88;20215;-76
2022/01/19 15:06:11;;;;;;;18.50;9.73;;;4.10;99.90;;;;;;6734521;88;20193;-78
2022/01/19 15:16:12;;;;;;;16.85;8.63;;;4.20;99.90;;;;;;6731581;88;20218;-78
2022/01/19 15:26:12;;;;;;;17.55;7.93;;;4.10;99.90;;;;;;6732868;88;20223;-77
2022/01/19 15:36:13;;;;;;;19.10;7.30;;;4.20;99.90;;;;;;6734285;88;20216;-76
2022/01/19 15:46:15;;;;;;;12.82;6.97;;;4.30;99.90;;;;;;6733167;88;20521;-77
2022/01/19 15:56:17;;;;;;;10.38;5.53;;;4.20;99.90;;;;;;6733627;88;20190;-77
2022/01/19 16:06:18;;;;;;;11.18;5.32;;;4.40;99.90;;;;;;6737742;88;20241;-80
2022/01/19 16:16:18;;;;;;;10.32;5.15;;;4.40;99.90;;;;;;6725633;88;20251;-78
2022/01/19 16:26:19;;;;;;;9.95;5.30;;;4.40;99.90;;;;;;6727394;88;20208;-76
2022/01/19 16:36:20;;;;;;;10.52;5.37;;;4.40;99.90;;;;;;6758464;88;20235;-75
2022/01/19 16:46:23;;;;;;;11.02;6.05;;;4.40;99.90;;;;;;6727450;88;20188;-75
2022/01/19 16:56:23;;;;;;;12.50;6.10;;;4.50;99.90;;;;;;6740300;87;20675;-74
2022/01/19 17:06:24;;;;;;;13.57;6.53;;;4.40;99.90;;;;;;6746544;88;20177;-75
2022/01/19 17:26:31;;;;;;;12.82;6.43;;;4.20;99.90;;;;;;6746927;88;20190;-76
2022/01/19 17:36:33;;;;;;;12.35;6.15;;;4.20;99.90;;;;;;6736595;88;20220;-75
2022/01/19 17:46:49;;;;;;;12.43;6.20;;;4.20;99.90;;;;;;6738033;88;20575;-74
2022/01/19 17:56:50;;;;;;;11.07;6.20;;;4.20;99.90;;;;;;6737352;88;20249;-75
2022/01/19 18:06:51;;;;;;;9.02;5.12;;;4.20;99.90;;;;;;6752575;88;20240;-75
2022/01/19 18:16:51;;;;;;;10.27;5.15;;;4.50;99.90;;;;;;6744967;88;20207;-75
2022/01/19 18:26:52;;;;;;;11.40;5.93;;;4.50;99.90;;;;;;6732992;88;20244;-74
2022/01/19 18:36:53;;;;;;;8.93;4.62;;;4.30;99.90;;;;;;6743437;88;20270;-76
2022/01/19 18:46:53;;;;;;;8.02;4.07;;;4.40;99.90;;;;;;6736954;88;20724;-76
2022/01/19 18:56:54;;;;;;;6.40;3.58;;;4.30;99.90;;;;;;6740499;88;20193;-75
2022/01/19 19:06:54;;;;;;;7.17;2.97;;;4.50;99.90;;;;;;6747164;88;20308;-76
2022/01/19 19:16:56;;;;;;;5.07;2.40;;;4.50;99.90;;;;;;6736882;88;20543;-74
2022/01/19 19:26:56;;;;;;;3.97;1.77;;;4.60;99.90;;;;;;6723119;88;20213;-75
2022/01/19 19:36:57;;;;;;;3.70;1.98;;;4.70;99.90;;;;;;6726911;88;20214;-75
2022/01/19 19:46:59;;;;;;;3.42;1.98;;;4.70;99.90;;;;;;6720369;88;20309;-77
2022/01/19 19:57:00;;;;;;;3.45;2.08;;;4.80;99.90;;;;;;6722051;88;20236;-75
2022/01/19 20:07:00;;;;;;;4.40;2.50;;;4.80;99.90;;;;;;6720183;88;20385;-75
2022/01/19 20:17:02;;;;;;;6.20;2.60;;;4.90;99.90;;;;;;6729022;88;20184;-75
2022/01/19 20:27:05;;;;;;;5.82;3.67;;;4.90;99.90;;;;;;6735433;88;20192;-74
2022/01/19 20:37:05;;;;;;;7.75;3.90;;;4.90;99.90;;;;;;6722746;88;20673;-74
2022/01/19 20:47:06;;;;;;;7.00;4.45;;;4.90;99.90;;;;;;6712553;88;20330;-74
2022/01/19 20:57:06;;;;;;;8.05;4.82;;;5.00;99.90;;;;;;6725296;88;20262;-75
2022/01/19 21:07:07;;;;;;;12.13;6.62;;;5.00;99.90;;;;;;6729536;88;20338;-75
2022/01/19 21:17:08;;;;;;;14.73;8.17;;;5.10;99.90;;;;;;6724118;88;20223;-76
2022/01/19 21:27:08;;;;;;;18.33;9.77;;;5.20;99.90;;;;;;6734060;88;21085;-78
2022/01/19 21:37:09;;;;;;;23.92;12.02;;;5.30;99.90;;;;;;6728956;88;20285;-75
2022/01/19 21:47:10;;;;;;;29.90;13.93;;;5.40;99.90;;;;;;6731434;88;20197;-75
2022/01/19 21:57:12;;;;;;;34.90;16.27;;;5.40;99.90;;;;;;6727060;88;20620;-76
2022/01/19 22:07:13;;;;;;;36.88;16.67;;;5.50;99.90;;;;;;6738563;88;20190;-77
2022/01/19 22:17:14;;;;;;;35.63;14.77;;;5.50;99.90;;;;;;6731561;88;20321;-76
2022/01/19 22:27:15;;;;;;;35.15;14.10;;;5.60;99.90;;;;;;6734985;88;20935;-76
2022/01/19 22:37:15;;;;;;;41.25;13.50;;;5.60;99.90;;;;;;6728891;88;20282;-76
2022/01/19 22:47:16;;;;;;;34.97;13.90;;;5.60;99.90;;;;;;6732320;88;20667;-76
2022/01/19 22:57:16;;;;;;;41.05;13.43;;;5.60;99.90;;;;;;6735485;87;20242;-76
2022/01/19 23:07:17;;;;;;;42.20;12.77;;;5.60;99.90;;;;;;6740940;88;20173;-76
2022/01/19 23:17:17;;;;;;;44.92;13.93;;;5.50;99.90;;;;;;6744772;88;20698;-77
2022/01/19 23:27:25;;;;;;;33.53;12.35;;;5.50;99.90;;;;;;6742709;88;20179;-77
2022/01/19 23:37:54;;;;;;;35.78;11.45;;;5.40;99.90;;;;;;6733707;88;20245;-76
2022/01/19 23:48:08;;;;;;;31.08;10.18;;;5.40;99.90;;;;;;6739050;88;20180;-76
2022/01/19 23:58:17;;;;;;;35.80;9.60;;;5.40;99.90;;;;;;6738713;87;20214;-76
